createdAt,value
2017-10-08T17:36:52.849Z,1014.73
2017-10-08T17:37:52.808Z,1014.72
2017-10-08T17:38:52.784Z,1014.74
2017-10-08T17:39:52.763Z,1014.72
2017-10-08T17:40:52.775Z,1014.70
2017-10-08T17:41:52.743Z,1014.74
2017-10-08T17:42:52.728Z,1014.76
2017-10-08T17:43:52.714Z,1014.74
2017-10-08T17:44:52.719Z,1014.74
2017-10-08T17:45:52.696Z,1014.77
2017-10-08T17:46:52.781Z,1014.75
2017-10-08T17:47:52.672Z,1014.76
2017-10-08T17:48:52.717Z,1014.79
2017-10-08T17:49:52.654Z,1014.78
2017-10-08T17:50:52.897Z,1014.77
2017-10-08T17:51:52.620Z,1014.84
2017-10-08T17:52:52.610Z,1014.79
2017-10-08T17:53:52.606Z,1014.79
2017-10-08T17:54:52.599Z,1014.82
2017-10-08T17:55:52.605Z,1014.83
2017-10-08T17:56:52.564Z,1014.85
2017-10-08T17:57:52.558Z,1014.80
2017-10-08T17:58:52.542Z,1014.80
2017-10-08T17:59:52.546Z,1014.76
2017-10-08T18:00:52.525Z,1014.82
2017-10-08T18:01:52.533Z,1014.80
2017-10-08T18:02:52.501Z,1014.79
2017-10-08T18:03:52.483Z,1014.78
2017-10-08T18:04:52.483Z,1014.78
2017-10-08T18:05:52.462Z,1014.80
2017-10-08T18:06:52.461Z,1014.82
2017-10-08T18:07:52.445Z,1014.87
2017-10-08T18:08:52.443Z,1014.84
2017-10-08T18:09:52.455Z,1014.84
2017-10-08T18:10:52.412Z,1014.84
2017-10-08T18:11:52.433Z,1014.90
2017-10-08T18:12:52.394Z,1014.88
2017-10-08T18:13:52.385Z,1014.89
2017-10-08T18:14:52.410Z,1014.91
2017-10-08T18:15:52.365Z,1014.94
2017-10-08T18:16:52.359Z,1014.90
2017-10-08T18:17:52.358Z,1014.93
2017-10-08T18:18:52.339Z,1014.96
2017-10-08T18:19:52.321Z,1014.98
2017-10-08T18:20:52.344Z,1014.97
2017-10-08T18:21:52.319Z,1014.99
2017-10-08T18:22:52.291Z,1014.97
2017-10-08T18:23:52.389Z,1014.95
2017-10-08T18:24:52.279Z,1014.97
2017-10-08T18:25:52.310Z,1014.96
2017-10-08T18:26:52.284Z,1014.95
2017-10-08T18:27:52.274Z,1014.98
2017-10-08T18:28:52.257Z,1014.95
2017-10-08T18:29:53.194Z,1014.98
2017-10-08T18:30:52.216Z,1014.99
2017-10-08T18:31:52.216Z,1015.01
2017-10-08T18:32:52.198Z,1014.99
2017-10-08T18:33:52.200Z,1015.02
2017-10-08T18:34:52.196Z,1015.04
2017-10-08T18:35:52.182Z,1015.07
2017-10-08T18:36:52.162Z,1015.07
2017-10-08T18:37:52.143Z,1015.06
2017-10-08T18:38:52.137Z,1015.06
2017-10-08T18:39:52.153Z,1015.07
2017-10-08T18:40:52.112Z,1015.07
2017-10-08T18:41:52.109Z,1015.05
2017-10-08T18:42:52.110Z,1015.05
2017-10-08T18:43:52.083Z,1015.04
2017-10-08T18:44:52.073Z,1015.04
2017-10-08T18:45:52.067Z,1015.04
2017-10-08T18:46:52.062Z,1015.07
2017-10-08T18:47:52.049Z,1015.09
2017-10-08T18:48:52.035Z,1015.05
2017-10-08T18:49:52.032Z,1015.07
2017-10-08T18:50:52.016Z,1015.08
2017-10-08T18:51:52.013Z,1015.08
2017-10-08T18:52:52.003Z,1015.06
2017-10-08T18:53:51.989Z,1015.12
2017-10-08T18:54:51.975Z,1015.11
2017-10-08T18:55:51.971Z,1015.13
2017-10-08T18:56:51.965Z,1015.11
2017-10-08T18:57:51.944Z,1015.19
2017-10-08T18:58:51.938Z,1015.17
2017-10-08T18:59:51.940Z,1015.18
2017-10-08T19:00:51.945Z,1015.22
2017-10-08T19:01:51.902Z,1015.22
2017-10-08T19:02:51.899Z,1015.20
2017-10-08T19:03:51.896Z,1015.21
2017-10-08T19:04:51.897Z,1015.23
2017-10-08T19:05:51.876Z,1015.24
2017-10-08T19:06:51.852Z,1015.22
2017-10-08T19:07:51.844Z,1015.26
2017-10-08T19:08:51.836Z,1015.24
2017-10-08T19:09:51.830Z,1015.28
2017-10-08T19:10:51.812Z,1015.28
2017-10-08T19:11:51.819Z,1015.26
2017-10-08T19:12:51.796Z,1015.29
2017-10-08T19:13:51.789Z,1015.27
2017-10-08T19:14:51.776Z,1015.26
2017-10-08T19:15:51.784Z,1015.29
2017-10-08T19:16:51.760Z,1015.33
2017-10-08T19:17:51.754Z,1015.35
2017-10-08T19:18:51.744Z,1015.34
2017-10-08T19:19:51.738Z,1015.36
2017-10-08T19:20:51.720Z,1015.35
2017-10-08T19:21:51.722Z,1015.34
2017-10-08T19:22:51.718Z,1015.34
2017-10-08T19:23:51.689Z,1015.38
2017-10-08T19:24:51.712Z,1015.37
2017-10-08T19:25:51.678Z,1015.36
2017-10-08T19:26:51.684Z,1015.43
2017-10-08T19:27:51.650Z,1015.44
2017-10-08T19:28:51.644Z,1015.42
2017-10-08T19:29:51.652Z,1015.41
2017-10-08T19:30:51.627Z,1015.35
2017-10-08T19:31:51.607Z,1015.41
2017-10-08T19:32:51.620Z,1015.41
2017-10-08T19:33:51.583Z,1015.40
2017-10-08T19:34:51.586Z,1015.42
2017-10-08T19:35:51.581Z,1015.46
2017-10-08T19:36:51.565Z,1015.43
2017-10-08T19:37:51.568Z,1015.43
2017-10-08T19:38:51.539Z,1015.45
2017-10-08T19:39:51.532Z,1015.49
2017-10-08T19:40:51.526Z,1015.46
2017-10-08T19:41:51.535Z,1015.44
2017-10-08T19:42:51.515Z,1015.46
2017-10-08T19:43:51.497Z,1015.48
2017-10-08T19:44:51.500Z,1015.50
2017-10-08T19:45:51.479Z,1015.49
2017-10-08T19:46:51.464Z,1015.45
2017-10-08T19:47:51.466Z,1015.49
2017-10-08T19:48:51.453Z,1015.46
2017-10-08T19:49:51.460Z,1015.47
2017-10-08T19:50:51.434Z,1015.50
2017-10-08T19:51:51.428Z,1015.51
2017-10-08T19:52:51.454Z,1015.49
2017-10-08T19:53:51.408Z,1015.47
2017-10-08T19:54:51.383Z,1015.49
2017-10-08T19:55:51.396Z,1015.47
2017-10-08T19:56:51.371Z,1015.52
2017-10-08T19:57:51.357Z,1015.53
2017-10-08T19:58:51.342Z,1015.51
2017-10-08T19:59:51.344Z,1015.52
2017-10-08T20:00:51.320Z,1015.53
2017-10-08T20:01:51.339Z,1015.55
2017-10-08T20:02:51.315Z,1015.58
2017-10-08T20:03:51.299Z,1015.54
2017-10-08T20:04:51.300Z,1015.57
2017-10-08T20:05:51.275Z,1015.54
2017-10-08T20:06:51.296Z,1015.56
2017-10-08T20:07:51.263Z,1015.56
2017-10-08T20:08:51.244Z,1015.56
2017-10-08T20:09:51.237Z,1015.52
